Time;durP1;ratioP1;P1;durP2;ratioP2;P2;SDS_P1;SDS_P2;PMS_P1;PMS_P2;Temp;Humidity;BMP_temperature;BMP_pressure;BME280_temperature;BME280_humidity;BME280_pressure;Samples;Min_cycle;Max_cycle;Signal;HPM_P1;HPM_P2
2021/06/10 00:00:13;;;;;;;9.40;8.50;;;17.00;99.90;;;;;;5120819;28;20223;-51
2021/06/10 00:02:40;;;;;;;9.33;8.53;;;16.90;99.90;;;;;;5102525;27;20257;-52
2021/06/10 00:05:08;;;;;;;10.47;8.87;;;16.80;99.90;;;;;;5119021;28;20886;-48
2021/06/10 00:07:36;;;;;;;9.00;7.20;;;16.80;99.90;;;;;;5122393;28;20611;-53
2021/06/10 00:10:06;;;;;;;8.10;7.40;;;16.70;99.90;;;;;;5119561;28;20204;-47
2021/06/10 00:12:32;;;;;;;8.73;7.93;;;16.70;99.90;;;;;;5122985;27;20205;-54
2021/06/10 00:14:58;;;;;;;8.27;7.47;;;16.70;99.90;;;;;;5119035;28;20189;-52
2021/06/10 00:17:24;;;;;;;9.13;8.17;;;16.70;99.90;;;;;;5106714;28;20200;-52
2021/06/10 00:19:50;;;;;;;8.80;8.00;;;16.60;99.90;;;;;;5118673;27;20922;-52
2021/06/10 00:22:16;;;;;;;10.73;8.00;;;16.50;99.90;;;;;;5122834;28;20384;-50
2021/06/10 00:24:44;;;;;;;7.73;6.90;;;16.60;99.90;;;;;;5120246;28;20280;-53
2021/06/10 00:27:10;;;;;;;8.87;7.70;;;16.60;99.90;;;;;;5122026;28;20233;-49
2021/06/10 00:29:36;;;;;;;8.80;8.03;;;16.70;99.90;;;;;;5120043;28;20601;-52
2021/06/10 00:32:02;;;;;;;8.63;7.83;;;16.70;99.90;;;;;;5119805;28;20197;-48
2021/06/10 00:34:29;;;;;;;8.13;7.40;;;16.70;99.90;;;;;;5106408;27;20219;-52
2021/06/10 00:36:56;;;;;;;8.60;7.80;;;16.70;99.90;;;;;;5119005;28;20232;-47
2021/06/10 00:39:22;;;;;;;8.80;8.00;;;16.60;99.90;;;;;;5123727;27;20283;-48
2021/06/10 00:41:50;;;;;;;9.40;8.50;;;16.50;99.90;;;;;;5123272;27;20271;-53
2021/06/10 00:44:16;;;;;;;8.83;8.13;;;16.50;99.90;;;;;;5125895;27;20192;-47
2021/06/10 00:46:42;;;;;;;9.17;8.27;;;16.40;99.90;;;;;;5118605;27;20188;-52
2021/06/10 00:49:08;;;;;;;9.23;8.33;;;16.40;99.90;;;;;;5108048;27;20208;-48
2021/06/10 00:51:38;;;;;;;9.13;8.27;;;16.50;99.90;;;;;;5125486;27;20204;-53
2021/06/10 00:54:05;;;;;;;8.90;8.03;;;16.50;99.90;;;;;;5124137;27;20205;-47
2021/06/10 00:56:31;;;;;;;8.87;8.17;;;16.50;99.90;;;;;;5125599;27;20196;-54
2021/06/10 00:58:59;;;;;;;8.73;8.03;;;16.50;99.90;;;;;;5121285;27;20212;-52
2021/06/10 01:01:26;;;;;;;8.70;7.93;;;16.40;99.90;;;;;;5126044;27;20196;-48
2021/06/10 01:03:52;;;;;;;9.33;8.53;;;16.30;99.90;;;;;;5089805;27;20248;-52
2021/06/10 01:06:25;;;;;;;9.30;8.50;;;16.20;99.90;;;;;;5125855;27;20710;-49
2021/06/10 01:08:58;;;;;;;9.27;8.37;;;16.20;99.90;;;;;;5121162;27;20191;-47
2021/06/10 01:11:37;;;;;;;9.60;8.63;;;16.10;99.90;;;;;;5126097;27;20562;-51
2021/06/10 01:14:13;;;;;;;9.33;8.50;;;16.10;99.90;;;;;;5123854;27;20835;-51
2021/06/10 01:16:43;;;;;;;9.00;8.10;;;16.20;99.90;;;;;;5122854;27;20664;-52
2021/06/10 01:19:11;;;;;;;9.50;8.60;;;16.00;99.90;;;;;;5121902;27;20289;-50
2021/06/10 01:21:41;;;;;;;10.10;8.80;;;16.00;99.90;;;;;;5107510;27;20216;-51
2021/06/10 01:24:17;;;;;;;10.07;9.17;;;16.00;99.90;;;;;;5124143;27;20199;-50
2021/06/10 01:26:54;;;;;;;10.23;9.23;;;16.10;99.90;;;;;;5122148;27;20203;-54
2021/06/10 01:29:23;;;;;;;9.20;8.40;;;16.00;99.90;;;;;;5123841;27;20212;-48
2021/06/10 01:31:50;;;;;;;9.87;8.97;;;16.00;99.90;;;;;;5121687;27;20201;-52
2021/06/10 01:34:17;;;;;;;9.63;8.73;;;15.90;99.90;;;;;;5125071;27;20247;-53
2021/06/10 01:36:46;;;;;;;11.37;10.20;;;15.80;99.90;;;;;;5107071;27;20201;-52
2021/06/10 01:39:15;;;;;;;11.13;9.93;;;15.70;99.90;;;;;;5124145;27;20312;-50
2021/06/10 01:41:42;;;;;;;9.97;9.07;;;15.60;99.90;;;;;;5123435;27;20837;-52
2021/06/10 01:44:11;;;;;;;9.70;8.90;;;15.50;99.90;;;;;;5123733;27;20184;-53
2021/06/10 01:46:39;;;;;;;9.20;8.30;;;15.60;99.90;;;;;;5122019;27;20695;-49
2021/06/10 01:49:08;;;;;;;10.27;9.30;;;15.60;99.90;;;;;;5122351;27;20296;-49
2021/06/10 01:51:35;;;;;;;8.80;8.07;;;15.60;99.90;;;;;;5121220;27;20211;-53
2021/06/10 01:54:06;;;;;;;9.43;8.63;;;15.50;99.90;;;;;;5110701;27;20204;-51
2021/06/10 01:56:34;;;;;;;8.53;7.73;;;15.50;99.90;;;;;;5123090;27;20192;-54
2021/06/10 01:59:00;;;;;;;9.37;8.47;;;15.50;99.90;;;;;;5121242;27;20229;-48
2021/06/10 02:01:28;;;;;;;9.13;8.33;;;15.50;99.90;;;;;;5117395;27;20192;-55
2021/06/10 02:03:58;;;;;;;13.57;9.13;;;15.50;99.90;;;;;;5102244;27;20261;-52
2021/06/10 02:06:27;;;;;;;10.67;9.77;;;15.50;99.90;;;;;;5102788;28;20701;-54
2021/06/10 02:08:55;;;;;;;10.70;9.73;;;15.40;99.90;;;;;;5103850;27;20277;-50
2021/06/10 02:11:22;;;;;;;10.30;9.30;;;15.30;99.90;;;;;;5123222;27;20555;-53
2021/06/10 02:13:49;;;;;;;10.00;9.10;;;15.20;99.90;;;;;;5122641;27;20846;-49
2021/06/10 02:16:17;;;;;;;10.07;9.07;;;15.20;99.90;;;;;;5119166;27;20193;-52
2021/06/10 02:18:46;;;;;;;9.90;9.07;;;15.20;99.90;;;;;;5120534;27;20180;-51
2021/06/10 02:21:14;;;;;;;9.30;8.40;;;15.20;99.90;;;;;;5123883;27;20207;-47
2021/06/10 02:23:42;;;;;;;10.40;9.17;;;15.20;99.90;;;;;;5105731;27;20201;-51
2021/06/10 02:26:10;;;;;;;9.83;9.03;;;15.20;99.90;;;;;;5124892;27;20196;-47
2021/06/10 02:28:37;;;;;;;9.63;8.83;;;15.20;99.90;;;;;;5120245;27;20195;-52
2021/06/10 02:31:04;;;;;;;10.97;9.87;;;15.20;99.90;;;;;;5123499;27;20658;-48
2021/06/10 02:33:31;;;;;;;10.33;9.37;;;15.10;99.90;;;;;;5120835;27;20262;-52
2021/06/10 02:35:57;;;;;;;10.33;9.33;;;15.10;99.90;;;;;;5124381;27;20192;-49
2021/06/10 02:38:26;;;;;;;10.60;9.53;;;15.10;99.90;;;;;;5116126;27;20681;-53
2021/06/10 02:40:54;;;;;;;10.87;9.77;;;15.00;99.90;;;;;;5116796;27;20212;-47
2021/06/10 02:43:21;;;;;;;11.03;10.03;;;15.00;99.90;;;;;;5118330;27;20196;-52
2021/06/10 02:45:48;;;;;;;11.70;10.50;;;14.90;99.90;;;;;;5121430;27;20237;-49
2021/06/10 02:48:16;;;;;;;11.47;10.37;;;14.80;99.90;;;;;;5123915;27;20671;-49
2021/06/10 02:50:43;;;;;;;10.70;9.60;;;14.70;99.90;;;;;;5119872;27;20205;-50
2021/06/10 02:53:14;;;;;;;11.40;10.30;;;14.80;99.90;;;;;;5123639;27;20261;-47
2021/06/10 02:55:43;;;;;;;9.93;9.07;;;14.80;99.90;;;;;;5100537;27;20837;-50
2021/06/10 02:58:12;;;;;;;10.93;10.03;;;14.70;99.90;;;;;;5123980;27;20217;-48
2021/06/10 03:00:39;;;;;;;10.63;9.70;;;14.60;99.90;;;;;;5118929;27;20519;-52
2021/06/10 03:03:10;;;;;;;11.80;10.70;;;14.60;99.90;;;;;;5122668;27;20188;-48
2021/06/10 03:05:38;;;;;;;10.97;9.97;;;14.60;99.90;;;;;;5120108;27;20176;-48
2021/06/10 03:08:04;;;;;;;10.67;9.57;;;14.60;99.90;;;;;;5123898;27;20192;-48
2021/06/10 03:10:32;;;;;;;12.27;10.67;;;14.60;99.90;;;;;;5101923;27;20231;-48
2021/06/10 03:13:01;;;;;;;12.53;11.17;;;14.60;99.90;;;;;;5123422;27;20284;-49
2021/06/10 03:15:29;;;;;;;11.73;10.27;;;14.40;99.90;;;;;;5102735;27;20325;-49
2021/06/10 03:17:56;;;;;;;11.70;10.50;;;14.40;99.90;;;;;;5117672;27;20204;-54
2021/06/10 03:20:23;;;;;;;11.80;10.70;;;14.50;99.90;;;;;;5113044;27;20208;-53
2021/06/10 03:22:50;;;;;;;11.90;9.77;;;14.50;99.90;;;;;;5121718;27;20942;-50
2021/06/10 03:25:17;;;;;;;10.53;9.53;;;14.50;99.90;;;;;;5120279;27;20726;-48
2021/06/10 03:27:45;;;;;;;10.57;9.63;;;14.60;99.90;;;;;;5097646;27;20200;-48
2021/06/10 03:30:14;;;;;;;11.07;10.10;;;14.60;99.90;;;;;;5121497;27;20224;-51
2021/06/10 03:32:41;;;;;;;12.27;10.97;;;14.60;99.90;;;;;;5119120;27;20885;-50
2021/06/10 03:35:09;;;;;;;13.10;11.80;;;14.50;99.90;;;;;;5123368;27;20223;-51
2021/06/10 03:37:36;;;;;;;11.93;10.87;;;14.50;99.90;;;;;;5118737;27;20189;-49
2021/06/10 03:40:04;;;;;;;12.33;11.20;;;14.40;99.90;;;;;;5123028;28;20265;-50
2021/06/10 03:42:32;;;;;;;11.53;10.43;;;14.30;99.90;;;;;;5101917;27;20245;-50
2021/06/10 03:44:59;;;;;;;13.37;10.80;;;14.20;99.90;;;;;;5123141;27;20242;-53
2021/06/10 03:47:27;;;;;;;11.43;10.40;;;14.20;99.90;;;;;;5120179;27;20233;-51
2021/06/10 03:49:53;;;;;;;12.00;10.90;;;14.20;99.90;;;;;;5121070;27;20209;-49
2021/06/10 03:52:23;;;;;;;12.87;10.53;;;14.30;99.90;;;;;;5122356;28;20227;-53
2021/06/10 03:54:49;;;;;;;12.30;10.77;;;14.30;99.90;;;;;;5121031;27;20250;-49
2021/06/10 03:57:15;;;;;;;11.80;10.60;;;14.30;99.90;;;;;;5122921;28;20200;-52
2021/06/10 03:59:41;;;;;;;12.17;10.87;;;14.20;99.90;;;;;;5100080;28;20220;-49
2021/06/10 04:02:07;;;;;;;11.50;10.40;;;14.20;99.90;;;;;;5122382;28;20207;-49
2021/06/10 04:04:34;;;;;;;11.77;10.63;;;14.20;99.90;;;;;;5109247;28;20205;-51
2021/06/10 04:07:01;;;;;;;11.43;10.30;;;14.20;99.90;;;;;;5101812;28;20190;-50
2021/06/10 04:09:27;;;;;;;11.00;10.00;;;14.30;99.90;;;;;;5101973;27;20204;-53
2021/06/10 04:11:53;;;;;;;11.40;10.30;;;14.40;99.90;;;;;;5124961;27;20669;-49
2021/06/10 04:14:19;;;;;;;11.17;10.07;;;14.40;99.90;;;;;;5107139;27;20220;-52
2021/06/10 04:16:45;;;;;;;12.13;10.80;;;14.40;99.90;;;;;;5126454;27;20200;-53
2021/06/10 04:19:12;;;;;;;11.90;10.80;;;14.40;99.90;;;;;;5124450;27;20261;-53
2021/06/10 04:21:39;;;;;;;11.87;10.70;;;14.40;99.90;;;;;;5123593;27;20185;-48
2021/06/10 04:24:06;;;;;;;11.87;10.70;;;14.50;99.90;;;;;;5125892;27;20213;-51
2021/06/10 04:26:32;;;;;;;10.30;9.30;;;14.50;99.90;;;;;;5116677;27;20201;-48
2021/06/10 04:28:58;;;;;;;11.70;10.60;;;14.60;99.90;;;;;;5105875;28;20213;-52
2021/06/10 04:31:24;;;;;;;10.73;9.80;;;14.60;99.90;;;;;;5100650;27;20775;-54
2021/06/10 04:33:51;;;;;;;11.53;10.53;;;14.60;99.90;;;;;;5126616;27;20209;-51
2021/06/10 04:36:17;;;;;;;11.60;10.43;;;14.70;99.90;;;;;;5123352;27;20188;-51
2021/06/10 04:38:44;;;;;;;12.27;11.00;;;14.70;99.90;;;;;;5113183;27;20185;-51
2021/06/10 04:41:11;;;;;;;11.53;10.47;;;14.80;99.90;;;;;;5120189;27;20247;-51
2021/06/10 04:43:37;;;;;;;10.93;9.37;;;14.80;99.90;;;;;;5120370;27;20284;-50
2021/06/10 04:46:03;;;;;;;11.70;10.43;;;14.90;99.90;;;;;;5106993;27;20227;-49
2021/06/10 04:48:30;;;;;;;11.53;10.43;;;14.90;99.90;;;;;;5127662;27;20193;-47
2021/06/10 04:50:57;;;;;;;11.30;9.90;;;15.00;99.90;;;;;;5125524;27;20223;-52
2021/06/10 04:53:23;;;;;;;11.33;10.17;;;15.10;99.90;;;;;;5121664;27;20207;-50
2021/06/10 04:55:51;;;;;;;11.13;9.93;;;15.10;99.90;;;;;;5126575;27;20200;-49
2021/06/10 04:58:17;;;;;;;10.10;9.13;;;15.20;99.90;;;;;;5101334;27;20666;-52
2021/06/10 05:00:43;;;;;;;10.97;9.87;;;15.30;99.90;;;;;;5114396;27;20209;-49
2021/06/10 05:03:09;;;;;;;11.43;9.83;;;15.30;99.90;;;;;;5114153;27;20635;-52
2021/06/10 05:05:38;;;;;;;10.70;9.70;;;15.40;99.90;;;;;;5130092;27;20760;-49
2021/06/10 05:08:05;;;;;;;10.50;8.33;;;15.50;99.90;;;;;;5124781;27;20196;-49
2021/06/10 05:10:31;;;;;;;9.53;8.63;;;15.50;99.90;;;;;;5121818;27;20204;-47
2021/06/10 05:12:59;;;;;;;9.87;8.90;;;15.60;99.90;;;;;;5114853;27;20296;-51
2021/06/10 05:15:25;;;;;;;10.57;9.47;;;15.70;99.90;;;;;;5100155;27;20269;-51
2021/06/10 05:17:52;;;;;;;9.67;8.73;;;15.70;99.90;;;;;;5109712;27;20201;-47
2021/06/10 05:20:18;;;;;;;9.90;9.00;;;15.90;99.90;;;;;;5115127;27;20280;-50
2021/06/10 05:22:45;;;;;;;10.50;8.30;;;16.00;99.90;;;;;;5105181;27;20200;-48
2021/06/10 05:25:11;;;;;;;10.00;8.97;;;16.10;99.90;;;;;;5112676;27;20189;-50
2021/06/10 05:27:38;;;;;;;8.90;8.00;;;16.10;99.90;;;;;;5105164;27;20197;-48
2021/06/10 05:30:06;;;;;;;14.40;9.10;;;16.20;99.90;;;;;;5119262;27;20565;-51
2021/06/10 05:32:33;;;;;;;8.50;7.70;;;16.20;99.90;;;;;;5129585;27;20196;-47
2021/06/10 05:34:59;;;;;;;11.00;7.90;;;16.30;99.90;;;;;;5097304;27;20296;-47
2021/06/10 05:37:25;;;;;;;9.00;7.80;;;16.40;99.90;;;;;;5121161;27;20193;-50
2021/06/10 05:39:51;;;;;;;8.93;8.10;;;16.40;99.90;;;;;;5128696;27;20212;-49
2021/06/10 05:42:17;;;;;;;9.50;8.40;;;16.50;99.90;;;;;;5142926;27;20195;-52
2021/06/10 05:44:44;;;;;;;9.57;8.67;;;16.60;99.90;;;;;;5123558;27;20196;-50
2021/06/10 05:47:12;;;;;;;13.10;8.43;;;16.70;99.90;;;;;;5119808;27;20197;-50
2021/06/10 05:49:38;;;;;;;7.77;7.00;;;16.80;99.90;;;;;;5100038;27;20242;-52
2021/06/10 05:52:05;;;;;;;8.07;7.27;;;16.90;99.90;;;;;;5122547;27;20200;-49
2021/06/10 05:54:31;;;;;;;7.20;6.50;;;17.00;99.90;;;;;;5119608;27;20208;-53
2021/06/10 05:56:58;;;;;;;6.73;5.43;;;17.10;99.90;;;;;;5117516;27;20693;-49
2021/06/10 05:59:25;;;;;;;9.93;7.03;;;17.10;99.90;;;;;;5124986;27;20208;-53
2021/06/10 06:01:51;;;;;;;9.20;7.07;;;17.20;99.90;;;;;;5122859;27;20197;-48
2021/06/10 06:04:18;;;;;;;7.90;6.43;;;17.30;99.90;;;;;;5110839;27;20192;-50
2021/06/10 06:06:45;;;;;;;7.00;5.97;;;17.40;99.90;;;;;;5125121;27;20249;-51
2021/06/10 06:09:11;;;;;;;7.07;6.33;;;17.50;99.90;;;;;;5114456;27;20241;-48
2021/06/10 06:11:37;;;;;;;8.33;6.50;;;17.60;99.90;;;;;;5125528;27;20184;-51
2021/06/10 06:14:07;;;;;;;7.43;6.73;;;17.60;99.90;;;;;;5116028;27;20215;-52
2021/06/10 06:16:36;;;;;;;8.73;5.70;;;17.80;99.90;;;;;;5113028;27;20230;-50
2021/06/10 06:19:04;;;;;;;6.50;6.00;;;17.80;99.90;;;;;;5129711;27;20216;-49
2021/06/10 06:21:32;;;;;;;6.17;5.57;;;17.90;99.90;;;;;;5114760;27;20195;-53
2021/06/10 06:23:59;;;;;;;6.17;5.13;;;18.00;99.90;;;;;;5123375;27;20204;-48
2021/06/10 06:26:25;;;;;;;6.37;5.60;;;18.10;99.90;;;;;;5134496;27;20713;-49
2021/06/10 06:28:53;;;;;;;6.00;5.23;;;18.20;99.90;;;;;;5130738;27;20196;-48
2021/06/10 06:31:20;;;;;;;5.07;4.57;;;18.30;99.90;;;;;;5116132;27;20616;-53
2021/06/10 06:33:46;;;;;;;5.17;4.67;;;18.40;99.90;;;;;;5134708;27;20220;-48
2021/06/10 06:36:12;;;;;;;5.13;4.73;;;18.40;99.90;;;;;;5102593;27;20278;-49
2021/06/10 06:38:39;;;;;;;7.23;5.33;;;18.60;99.90;;;;;;5112410;27;20209;-48
2021/06/10 06:41:06;;;;;;;7.57;5.80;;;18.60;99.90;;;;;;5111953;27;20192;-48
2021/06/10 06:43:32;;;;;;;5.07;4.33;;;18.70;99.90;;;;;;5120795;27;20267;-49
2021/06/10 06:46:03;;;;;;;4.63;4.23;;;18.80;99.90;;;;;;5132503;27;20204;-50
2021/06/10 06:48:29;;;;;;;5.57;4.40;;;18.90;99.90;;;;;;5119107;27;20230;-47
2021/06/10 06:50:55;;;;;;;4.90;4.27;;;19.00;99.90;;;;;;5112922;27;20212;-51
2021/06/10 06:53:21;;;;;;;4.27;3.43;;;19.10;99.90;;;;;;5125882;27;20204;-52
2021/06/10 06:55:49;;;;;;;3.50;3.00;;;19.10;99.90;;;;;;5131740;27;20208;-51
2021/06/10 06:58:15;;;;;;;3.23;2.90;;;19.20;99.90;;;;;;5110795;27;20235;-53
2021/06/10 07:00:41;;;;;;;3.17;2.77;;;19.20;99.90;;;;;;5117717;27;20220;-50
2021/06/10 07:03:07;;;;;;;3.77;3.40;;;19.20;99.90;;;;;;5105813;27;20266;-51
2021/06/10 07:05:33;;;;;;;3.23;2.93;;;19.30;99.90;;;;;;5092710;27;20201;-53
2021/06/10 07:07:59;;;;;;;3.83;3.10;;;19.40;99.90;;;;;;5113160;27;20198;-52
2021/06/10 07:10:26;;;;;;;5.30;2.90;;;19.50;99.90;;;;;;5110288;27;20227;-52
2021/06/10 07:12:53;;;;;;;3.33;2.93;;;19.60;99.90;;;;;;5126153;27;20283;-53
2021/06/10 07:15:19;;;;;;;4.40;3.03;;;19.60;99.90;;;;;;5120685;27;20240;-53
2021/06/10 07:17:45;;;;;;;3.63;3.10;;;19.60;99.90;;;;;;5107671;27;20208;-50
2021/06/10 07:20:13;;;;;;;3.93;2.83;;;19.70;99.90;;;;;;5119335;27;20221;-51
2021/06/10 07:22:39;;;;;;;3.80;3.23;;;19.70;99.90;;;;;;5103609;27;20205;-50
2021/06/10 07:25:07;;;;;;;4.53;3.40;;;19.70;99.90;;;;;;5115835;27;20213;-52
2021/06/10 07:27:33;;;;;;;3.50;3.30;;;19.80;99.90;;;;;;5119018;27;20257;-54
2021/06/10 07:30:01;;;;;;;4.40;3.47;;;19.80;99.90;;;;;;5115928;27;20201;-51
2021/06/10 07:32:27;;;;;;;3.47;2.97;;;19.90;99.90;;;;;;5106391;27;20225;-51
2021/06/10 07:34:53;;;;;;;5.73;2.73;;;19.90;99.90;;;;;;5105860;28;20208;-49
2021/06/10 07:37:19;;;;;;;4.03;2.77;;;20.00;99.90;;;;;;5101273;28;20204;-52
2021/06/10 07:39:46;;;;;;;3.07;2.83;;;20.10;99.90;;;;;;5115326;27;20204;-52
2021/06/10 07:42:12;;;;;;;4.23;2.90;;;20.20;99.90;;;;;;5121579;27;20265;-51
2021/06/10 07:44:39;;;;;;;4.83;3.50;;;20.30;99.90;;;;;;5111422;27;21304;-51
2021/06/10 07:47:06;;;;;;;3.90;3.43;;;20.40;99.90;;;;;;5111149;27;20199;-52
2021/06/10 07:49:33;;;;;;;4.53;3.40;;;20.50;99.90;;;;;;5112970;27;20300;-48
2021/06/10 07:51:59;;;;;;;4.60;2.90;;;20.50;99.90;;;;;;5110834;27;20750;-51
2021/06/10 07:54:26;;;;;;;4.27;2.53;;;20.60;99.90;;;;;;5116427;27;20298;-50
2021/06/10 07:56:53;;;;;;;3.10;2.80;;;20.60;99.70;;;;;;5120151;27;20207;-52
2021/06/10 07:59:24;;;;;;;2.67;2.47;;;20.70;99.90;;;;;;5121898;27;20232;-50
2021/06/10 08:01:51;;;;;;;2.93;2.73;;;20.70;99.90;;;;;;5124759;27;20567;-51
2021/06/10 08:04:18;;;;;;;2.90;2.60;;;20.70;99.90;;;;;;5123308;27;20277;-53
2021/06/10 08:06:45;;;;;;;5.37;2.90;;;20.80;99.90;;;;;;5122390;27;20198;-48
2021/06/10 08:09:11;;;;;;;4.63;4.07;;;20.80;99.90;;;;;;5104359;27;20228;-52
2021/06/10 08:11:37;;;;;;;4.87;4.47;;;20.80;99.60;;;;;;5122656;27;20244;-48
2021/06/10 08:14:04;;;;;;;5.20;4.20;;;20.80;99.70;;;;;;5119834;27;20212;-50
2021/06/10 08:16:30;;;;;;;4.70;4.27;;;20.90;99.00;;;;;;5108518;27;20948;-51
2021/06/10 08:18:56;;;;;;;4.97;4.47;;;21.00;98.90;;;;;;5110272;27;20601;-49
2021/06/10 08:21:24;;;;;;;4.23;3.83;;;21.10;98.70;;;;;;5115555;27;20200;-48
2021/06/10 08:23:50;;;;;;;4.13;3.73;;;21.20;99.00;;;;;;5103836;27;20205;-52
2021/06/10 08:26:16;;;;;;;3.63;3.33;;;21.30;99.10;;;;;;5126082;27;20217;-48
2021/06/10 08:28:43;;;;;;;5.93;3.40;;;21.40;98.40;;;;;;5125058;27;20651;-50
2021/06/10 08:31:09;;;;;;;4.67;4.20;;;21.50;98.60;;;;;;5103881;27;20202;-48
2021/06/10 08:33:36;;;;;;;4.80;3.90;;;21.70;97.90;;;;;;5124520;27;20758;-52
2021/06/10 08:36:03;;;;;;;6.00;4.93;;;21.70;97.50;;;;;;5113254;27;20937;-53
2021/06/10 08:38:30;;;;;;;6.80;6.13;;;21.70;97.40;;;;;;5120548;27;20583;-50
2021/06/10 08:40:56;;;;;;;6.97;5.77;;;21.60;97.50;;;;;;5104800;27;20223;-50
2021/06/10 08:43:23;;;;;;;7.80;7.00;;;21.60;97.10;;;;;;5110426;27;20325;-54
2021/06/10 08:45:59;;;;;;;6.53;5.63;;;21.60;96.90;;;;;;5119921;27;20240;-49
2021/06/10 08:48:25;;;;;;;6.73;5.23;;;21.60;96.60;;;;;;5110776;27;20219;-47
2021/06/10 08:50:51;;;;;;;5.80;5.20;;;21.70;96.70;;;;;;5139400;27;20212;-52
2021/06/10 08:53:17;;;;;;;6.37;4.97;;;21.80;97.00;;;;;;5100599;27;20201;-48
2021/06/10 08:55:45;;;;;;;6.33;5.40;;;22.00;96.70;;;;;;5109777;27;20266;-49
2021/06/10 08:58:11;;;;;;;7.23;6.53;;;22.00;96.70;;;;;;5108429;27;20204;-51
2021/06/10 09:00:37;;;;;;;6.50;5.93;;;22.20;96.50;;;;;;5108133;27;20221;-50
2021/06/10 09:03:03;;;;;;;6.50;5.97;;;22.20;95.90;;;;;;5114241;27;20228;-50
2021/06/10 09:05:30;;;;;;;7.87;6.00;;;22.20;95.50;;;;;;5111512;27;20204;-48
2021/06/10 09:07:58;;;;;;;10.37;8.40;;;22.30;95.60;;;;;;5107397;27;20571;-48
2021/06/10 09:10:26;;;;;;;6.23;5.70;;;22.40;94.70;;;;;;5109702;27;20236;-49
2021/06/10 09:12:55;;;;;;;9.33;7.07;;;22.40;95.40;;;;;;5100564;27;20208;-52
2021/06/10 09:15:23;;;;;;;7.93;7.13;;;22.60;95.30;;;;;;5118673;27;20209;-47
2021/06/10 09:17:49;;;;;;;10.90;9.37;;;22.50;95.20;;;;;;5119255;27;20658;-54
2021/06/10 09:20:35;;;;;;;9.17;7.73;;;22.60;95.60;;;;;;5118329;27;20197;-48
2021/06/10 09:23:11;;;;;;;8.70;7.90;;;22.70;95.50;;;;;;5108404;27;20756;-51
2021/06/10 09:25:38;;;;;;;12.57;11.27;;;22.70;95.40;;;;;;5109632;27;20196;-49
2021/06/10 09:28:07;;;;;;;13.00;11.03;;;22.80;94.70;;;;;;5100209;27;20205;-49
2021/06/10 09:30:36;;;;;;;11.83;10.73;;;22.70;95.30;;;;;;5124976;27;20299;-47
2021/06/10 09:33:05;;;;;;;10.00;9.03;;;22.80;94.90;;;;;;5118340;27;20197;-52
2021/06/10 09:35:33;;;;;;;9.17;8.30;;;22.60;94.30;;;;;;5117037;27;20295;-49
2021/06/10 09:38:03;;;;;;;11.33;10.10;;;22.50;94.90;;;;;;5110066;27;20198;-54
2021/06/10 09:40:29;;;;;;;9.87;8.90;;;22.60;94.60;;;;;;5106411;27;20220;-46
2021/06/10 09:42:56;;;;;;;12.73;10.33;;;22.60;94.80;;;;;;5100825;27;20209;-53
2021/06/10 09:45:27;;;;;;;10.53;9.43;;;22.60;95.10;;;;;;5114253;27;20241;-47
2021/06/10 09:47:56;;;;;;;10.57;9.10;;;22.70;95.00;;;;;;5107181;27;20745;-52
2021/06/10 09:50:26;;;;;;;9.07;8.17;;;22.70;94.70;;;;;;5117913;27;20296;-46
2021/06/10 09:52:54;;;;;;;9.37;7.23;;;22.70;94.70;;;;;;5113911;27;20193;-53
2021/06/10 09:55:30;;;;;;;8.50;7.70;;;22.80;95.30;;;;;;5105574;27;20970;-47
2021/06/10 09:57:57;;;;;;;11.37;10.33;;;22.90;95.10;;;;;;5091688;27;20232;-54
2021/06/10 10:00:28;;;;;;;11.50;9.63;;;22.90;94.60;;;;;;5118605;27;20231;-51
2021/06/10 10:02:54;;;;;;;10.40;9.33;;;22.90;94.50;;;;;;5105858;27;20216;-50
2021/06/10 10:05:22;;;;;;;11.23;9.90;;;22.90;94.50;;;;;;5109256;27;20176;-47
2021/06/10 10:07:49;;;;;;;10.00;9.00;;;22.90;94.30;;;;;;5136127;27;20196;-51
2021/06/10 10:10:16;;;;;;;11.33;10.23;;;22.90;94.30;;;;;;5110414;27;22713;-47
2021/06/10 10:12:43;;;;;;;11.10;10.03;;;22.90;94.00;;;;;;5100200;27;20221;-47
2021/06/10 10:15:11;;;;;;;11.87;9.80;;;22.80;94.70;;;;;;5107536;27;20208;-48
2021/06/10 10:17:39;;;;;;;11.80;10.33;;;22.90;94.90;;;;;;5111285;27;20201;-48
2021/06/10 10:20:08;;;;;;;12.37;11.23;;;22.90;95.00;;;;;;5112934;27;20956;-48
2021/06/10 10:22:35;;;;;;;11.30;9.90;;;22.90;94.70;;;;;;5121874;27;20199;-50
2021/06/10 10:25:02;;;;;;;12.05;10.85;;;22.90;94.90;;;;;;5112601;27;20199;-52
2021/06/10 10:27:29;;;;;;;13.00;11.80;;;22.90;94.90;;;;;;5109768;27;20205;-51
2021/06/10 10:29:55;;;;;;;12.23;10.20;;;22.90;94.20;;;;;;5095479;27;20224;-53
2021/06/10 10:32:24;;;;;;;12.25;11.07;;;23.00;94.80;;;;;;5113289;27;21091;-48
2021/06/10 10:34:52;;;;;;;10.75;9.68;;;23.00;94.20;;;;;;5107665;27;20217;-53
2021/06/10 10:37:21;;;;;;;10.93;10.00;;;23.00;93.90;;;;;;5109872;27;20201;-50
2021/06/10 10:39:49;;;;;;;12.27;11.18;;;23.10;94.10;;;;;;5121382;27;20205;-53
2021/06/10 10:42:27;;;;;;;14.45;12.15;;;23.10;94.20;;;;;;5099835;27;20209;-48
2021/06/10 10:45:11;;;;;;;13.05;11.75;;;23.20;93.50;;;;;;5095276;27;20236;-53
2021/06/10 10:47:44;;;;;;;11.68;10.55;;;23.20;93.80;;;;;;5104827;27;20231;-49
2021/06/10 10:50:17;;;;;;;12.98;11.68;;;23.30;94.10;;;;;;5112651;27;20212;-52
2021/06/10 10:53:01;;;;;;;13.95;11.70;;;23.40;93.50;;;;;;5118297;27;20284;-47
2021/06/10 10:55:30;;;;;;;11.88;10.77;;;23.40;93.50;;;;;;5119645;27;20209;-48
2021/06/10 10:58:08;;;;;;;13.43;11.55;;;23.50;93.30;;;;;;5109946;27;20205;-52
2021/06/10 11:00:52;;;;;;;12.45;11.15;;;23.70;92.90;;;;;;5111605;27;20220;-51
2021/06/10 11:03:30;;;;;;;12.88;11.13;;;23.70;91.70;;;;;;5109400;27;20228;-52
2021/06/10 11:06:01;;;;;;;14.27;11.57;;;23.80;92.30;;;;;;5118510;27;20201;-52
2021/06/10 11:08:58;;;;;;;16.42;12.82;;;23.60;92.30;;;;;;5115330;27;20200;-48
2021/06/10 11:11:51;;;;;;;11.45;10.30;;;23.60;91.20;;;;;;5113473;27;20208;-50
2021/06/10 11:14:40;;;;;;;12.27;10.98;;;23.50;91.60;;;;;;5109186;27;20205;-47
2021/06/10 11:17:18;;;;;;;13.45;12.15;;;23.40;92.20;;;;;;5092190;27;20212;-52
2021/06/10 11:19:56;;;;;;;13.02;9.18;;;23.50;93.40;;;;;;5105726;27;20705;-52
2021/06/10 11:22:45;;;;;;;11.40;10.30;;;23.70;93.10;;;;;;5115574;27;20812;-49
2021/06/10 11:25:15;;;;;;;13.07;11.65;;;23.80;94.10;;;;;;5108780;27;20196;-54
2021/06/10 11:27:43;;;;;;;10.15;9.15;;;23.90;92.00;;;;;;5113413;27;20650;-50
2021/06/10 11:30:18;;;;;;;11.32;9.88;;;23.80;91.60;;;;;;5123548;27;20201;-48
2021/06/10 11:32:58;;;;;;;11.27;10.18;;;23.80;90.60;;;;;;5121488;27;20199;-52
2021/06/10 11:35:30;;;;;;;9.50;8.65;;;23.90;85.20;;;;;;5099981;28;20277;-48
2021/06/10 11:37:59;;;;;;;10.95;9.85;;;23.80;89.80;;;;;;5119858;27;20216;-51
2021/06/10 11:40:26;;;;;;;10.70;9.65;;;24.00;89.60;;;;;;5129929;27;20224;-48
2021/06/10 11:42:52;;;;;;;12.38;10.82;;;24.00;89.50;;;;;;5136962;27;20196;-51
2021/06/10 11:45:21;;;;;;;10.85;9.85;;;24.00;90.00;;;;;;5117612;28;20204;-47
2021/06/10 11:47:49;;;;;;;10.77;9.18;;;24.10;90.60;;;;;;5105183;27;20204;-54
2021/06/10 11:50:27;;;;;;;9.18;8.27;;;24.10;90.20;;;;;;5112169;27;20225;-50
2021/06/10 11:52:55;;;;;;;9.73;8.82;;;24.10;83.20;;;;;;5119564;28;20264;-47
2021/06/10 11:55:23;;;;;;;10.30;9.23;;;24.00;85.50;;;;;;5123917;27;20225;-53
2021/06/10 11:57:54;;;;;;;11.02;9.95;;;24.10;83.20;;;;;;5111358;28;20925;-49
2021/06/10 12:00:27;;;;;;;9.70;8.80;;;24.20;85.00;;;;;;5097211;28;20233;-54
2021/06/10 12:02:57;;;;;;;12.27;11.18;;;24.20;84.30;;;;;;5118417;27;20212;-50
2021/06/10 12:05:25;;;;;;;11.50;10.30;;;24.30;83.30;;;;;;5105684;27;20326;-51
2021/06/10 12:08:05;;;;;;;13.10;11.80;;;24.40;84.80;;;;;;5119902;28;20205;-51
2021/06/10 12:10:32;;;;;;;10.50;9.50;;;24.50;86.40;;;;;;5119850;28;20220;-53
2021/06/10 12:12:58;;;;;;;10.48;9.27;;;24.50;86.60;;;;;;5116877;28;20209;-54
2021/06/10 12:15:35;;;;;;;10.57;9.68;;;24.60;89.60;;;;;;5111773;28;20212;-53
2021/06/10 12:18:02;;;;;;;10.65;9.50;;;24.90;87.60;;;;;;5106779;27;20201;-52
2021/06/10 12:20:29;;;;;;;9.50;8.60;;;25.10;85.50;;;;;;5090610;27;20225;-52
2021/06/10 12:22:56;;;;;;;11.82;9.23;;;25.10;83.30;;;;;;5115430;27;20531;-51
2021/06/10 12:25:25;;;;;;;9.60;8.70;;;24.90;81.60;;;;;;5115113;27;20203;-48
2021/06/10 12:27:54;;;;;;;10.32;8.65;;;25.00;79.20;;;;;;5104169;27;20567;-49
2021/06/10 12:30:22;;;;;;;11.65;10.52;;;25.30;80.00;;;;;;5110628;27;20217;-53
2021/06/10 12:32:48;;;;;;;11.07;10.02;;;25.30;76.30;;;;;;5102845;27;20844;-47
2021/06/10 12:35:17;;;;;;;10.75;9.75;;;25.10;77.40;;;;;;5091436;27;20231;-50
2021/06/10 12:37:48;;;;;;;13.38;12.02;;;25.00;78.60;;;;;;5113781;27;20279;-52
2021/06/10 12:40:14;;;;;;;11.70;10.40;;;24.90;78.40;;;;;;5113670;27;20262;-53
2021/06/10 12:42:40;;;;;;;10.55;9.55;;;24.90;80.60;;;;;;5118004;27;20466;-50